createdAt,value
2019-06-04T00:00:36.225Z,4.60
2019-06-04T00:03:06.192Z,4.22
2019-06-04T00:05:34.813Z,4.53
2019-06-04T00:08:03.418Z,4.00
2019-06-04T00:10:31.983Z,3.70
2019-06-04T00:13:01.796Z,4.20
2019-06-04T00:15:30.332Z,4.30
2019-06-04T00:17:58.789Z,3.83
2019-06-04T00:20:27.291Z,4.13
2019-06-04T00:22:56.408Z,5.10
2019-06-04T00:25:24.880Z,4.50
2019-06-04T00:27:53.416Z,5.03
2019-06-04T00:30:25.334Z,3.90
2019-06-04T00:32:53.794Z,4.03
2019-06-04T00:35:22.295Z,4.40
2019-06-04T00:37:50.764Z,4.30
2019-06-04T00:40:22.441Z,4.93
2019-06-04T00:42:50.913Z,4.70
2019-06-04T00:45:19.476Z,4.10
2019-06-04T00:47:48.052Z,4.33
2019-06-04T00:50:16.545Z,4.70
2019-06-04T00:52:45.010Z,5.10
2019-06-04T00:55:28.999Z,3.90
2019-06-04T00:58:00.708Z,4.63
2019-06-04T01:00:30.982Z,4.30
2019-06-04T01:02:59.673Z,4.40
2019-06-04T01:05:28.925Z,4.60
2019-06-04T01:07:57.385Z,4.20
2019-06-04T01:10:26.099Z,3.90
2019-06-04T01:12:54.560Z,4.67
2019-06-04T01:15:25.828Z,4.33
2019-06-04T01:17:53.312Z,4.50
2019-06-04T01:20:42.982Z,4.33
2019-06-04T01:23:12.378Z,4.60
2019-06-04T01:25:41.096Z,4.70
2019-06-04T01:28:09.929Z,4.00
2019-06-04T01:30:38.524Z,4.30
2019-06-04T01:33:08.207Z,3.93
2019-06-04T01:35:36.974Z,4.40
2019-06-04T01:38:06.624Z,4.37
2019-06-04T01:40:35.282Z,4.17
2019-06-04T01:43:05.571Z,4.73
2019-06-04T01:45:34.609Z,5.13
2019-06-04T01:48:03.765Z,3.80
2019-06-04T01:50:32.357Z,4.30
2019-06-04T01:53:02.229Z,4.30
2019-06-04T01:55:30.809Z,4.57
2019-06-04T01:57:59.270Z,3.70
2019-06-04T02:00:30.844Z,4.03
2019-06-04T02:02:57.932Z,3.80
2019-06-04T02:05:26.470Z,3.95
2019-06-04T02:07:54.976Z,3.90
2019-06-04T02:10:23.595Z,4.92
2019-06-04T02:12:52.096Z,4.20
2019-06-04T02:15:22.089Z,4.10
2019-06-04T02:17:50.577Z,4.10
2019-06-04T02:20:19.211Z,4.57
2019-06-04T02:22:47.695Z,4.37
2019-06-04T02:25:16.223Z,4.27
2019-06-04T02:27:44.777Z,4.33
2019-06-04T02:30:15.517Z,4.10
2019-06-04T02:33:05.354Z,4.00
2019-06-04T02:35:15.053Z,4.30
2019-06-04T02:37:43.519Z,4.73
2019-06-04T02:40:14.017Z,5.10
2019-06-04T02:42:42.925Z,4.20
2019-06-04T02:45:12.570Z,4.53
2019-06-04T02:47:42.592Z,4.80
2019-06-04T02:50:14.141Z,5.60
2019-06-04T02:52:46.009Z,5.00
2019-06-04T02:55:15.982Z,5.17
2019-06-04T02:57:46.806Z,4.97
2019-06-04T03:00:18.386Z,4.65
2019-06-04T03:02:46.926Z,4.73
2019-06-04T03:05:15.461Z,5.13
2019-06-04T03:07:43.950Z,5.30
2019-06-04T03:10:17.485Z,5.03
2019-06-04T03:12:45.932Z,4.23
2019-06-04T03:15:15.846Z,4.70
2019-06-04T03:17:44.389Z,5.23
2019-06-04T03:20:12.871Z,4.50
2019-06-04T03:22:41.370Z,4.10
2019-06-04T03:25:10.958Z,4.78
2019-06-04T03:27:39.494Z,5.30
2019-06-04T03:30:08.126Z,5.07
2019-06-04T03:32:36.633Z,4.60
2019-06-04T03:35:05.394Z,4.93
2019-06-04T03:37:33.871Z,4.50
2019-06-04T03:40:02.357Z,5.27
2019-06-04T03:42:30.846Z,4.40
2019-06-04T03:44:59.301Z,4.13
2019-06-04T03:47:27.796Z,4.20
2019-06-04T03:49:56.257Z,4.90
2019-06-04T03:52:25.018Z,4.30
2019-06-04T03:54:53.622Z,4.60
2019-06-04T03:57:22.239Z,5.27
2019-06-04T03:59:50.684Z,6.07
2019-06-04T04:02:20.553Z,5.87
2019-06-04T04:04:49.046Z,4.50
2019-06-04T04:07:18.373Z,5.13
2019-06-04T04:09:46.914Z,5.17
2019-06-04T04:12:16.708Z,5.10
2019-06-04T04:14:45.349Z,5.77
2019-06-04T04:17:13.817Z,5.70
2019-06-04T04:19:42.311Z,5.27
2019-06-04T04:22:10.770Z,5.20
2019-06-04T04:24:42.770Z,6.03
2019-06-04T04:27:09.383Z,4.60
2019-06-04T04:29:37.888Z,5.50
2019-06-04T04:32:06.358Z,5.03
2019-06-04T04:34:36.886Z,5.13
2019-06-04T04:37:05.041Z,5.67
2019-06-04T04:39:33.528Z,4.93
2019-06-04T04:42:01.988Z,4.60
2019-06-04T04:44:30.484Z,4.50
2019-06-04T04:46:58.949Z,5.07
2019-06-04T04:49:32.465Z,4.77
2019-06-04T04:51:57.586Z,4.53
2019-06-04T04:54:26.189Z,5.63
2019-06-04T04:56:55.028Z,3.93
2019-06-04T04:59:23.637Z,4.30
2019-06-04T05:01:52.159Z,4.83
2019-06-04T05:04:21.824Z,4.63
2019-06-04T05:06:51.739Z,4.73
2019-06-04T05:09:20.627Z,5.67
2019-06-04T05:11:50.629Z,5.67
2019-06-04T05:14:19.124Z,5.63
2019-06-04T05:16:47.713Z,5.47
2019-06-04T05:19:17.356Z,5.40
2019-06-04T05:21:48.616Z,5.33
2019-06-04T05:24:17.223Z,5.97
2019-06-04T05:26:45.672Z,5.30
2019-06-04T05:29:14.176Z,6.30
2019-06-04T05:31:42.641Z,5.73
2019-06-04T05:34:11.133Z,5.03
2019-06-04T05:36:39.602Z,5.40
2019-06-04T05:39:08.672Z,5.47
2019-06-04T05:41:37.137Z,5.17
2019-06-04T05:44:05.709Z,5.37
2019-06-04T05:46:34.110Z,5.37
2019-06-04T05:49:05.364Z,4.60
2019-06-04T05:51:33.320Z,5.30
2019-06-04T05:54:01.897Z,4.80
2019-06-04T05:56:31.707Z,5.00
2019-06-04T05:59:00.564Z,5.50
2019-06-04T06:01:32.764Z,5.87
2019-06-04T06:03:59.178Z,5.23
2019-06-04T06:06:27.636Z,5.43
2019-06-04T06:08:56.128Z,5.43
2019-06-04T06:11:25.552Z,13.27
2019-06-04T06:13:54.107Z,26.00
2019-06-04T06:16:23.774Z,15.20
2019-06-04T06:18:52.375Z,7.47
2019-06-04T06:21:20.842Z,5.00
2019-06-04T06:23:49.306Z,4.90
2019-06-04T06:26:17.801Z,3.53
2019-06-04T06:28:46.263Z,3.70
2019-06-04T06:31:14.819Z,3.77
2019-06-04T06:33:43.279Z,4.27
2019-06-04T06:36:11.770Z,3.60
2019-06-04T06:38:53.956Z,3.77
2019-06-04T06:41:10.380Z,3.20
2019-06-04T06:43:38.841Z,4.07
2019-06-04T06:46:07.329Z,4.80
2019-06-04T06:48:35.796Z,3.80
2019-06-04T06:51:04.273Z,2.97
2019-06-04T06:53:34.401Z,3.57
2019-06-04T06:56:02.876Z,3.37
2019-06-04T06:58:33.780Z,2.73
2019-06-04T07:01:03.279Z,3.20
2019-06-04T07:03:33.198Z,2.90
2019-06-04T07:06:03.836Z,3.20
2019-06-04T07:08:34.324Z,2.67
2019-06-04T07:11:08.488Z,2.87
2019-06-04T07:13:35.562Z,2.73
2019-06-04T07:16:05.380Z,2.57
2019-06-04T07:18:34.185Z,2.37
2019-06-04T07:21:04.393Z,2.70
2019-06-04T07:23:32.863Z,2.50
2019-06-04T07:26:01.350Z,2.80
2019-06-04T07:28:30.335Z,2.80
2019-06-04T07:31:01.428Z,2.70
2019-06-04T07:33:30.639Z,2.73
2019-06-04T07:36:20.858Z,2.60
2019-06-04T07:38:30.746Z,2.33
2019-06-04T07:40:59.346Z,2.53
2019-06-04T07:43:27.804Z,2.00
2019-06-04T07:45:56.387Z,2.70
2019-06-04T07:48:34.020Z,2.90
2019-06-04T07:50:54.989Z,2.70
2019-06-04T07:53:23.487Z,2.67
2019-06-04T07:55:51.976Z,2.23
2019-06-04T07:58:20.443Z,2.80
2019-06-04T08:00:49.854Z,2.60
2019-06-04T08:03:20.749Z,2.50
2019-06-04T08:05:49.390Z,2.77
2019-06-04T08:08:17.990Z,2.70
2019-06-04T08:10:46.626Z,2.30
2019-06-04T08:13:16.069Z,2.60
2019-06-04T08:15:44.570Z,3.47
2019-06-04T08:18:13.031Z,2.70
2019-06-04T08:20:41.968Z,2.60
2019-06-04T08:23:10.565Z,2.70
2019-06-04T08:25:40.693Z,2.60
2019-06-04T08:28:09.245Z,2.00
2019-06-04T08:30:38.440Z,2.63
2019-06-04T08:33:06.977Z,2.37
2019-06-04T08:35:36.940Z,2.60
2019-06-04T08:38:05.534Z,2.30
2019-06-04T08:40:35.378Z,2.30
2019-06-04T08:43:04.229Z,2.30
2019-06-04T08:45:32.677Z,1.93
2019-06-04T08:48:01.165Z,2.03
2019-06-04T08:50:29.699Z,1.97
2019-06-04T08:52:58.250Z,2.43
2019-06-04T08:55:35.958Z,1.83
2019-06-04T08:58:06.243Z,1.80
2019-06-04T09:00:35.148Z,1.97
2019-06-04T09:03:04.400Z,2.10
2019-06-04T09:05:33.663Z,1.60
2019-06-04T09:08:09.478Z,1.90
2019-06-04T09:10:42.912Z,2.10
2019-06-04T09:13:10.818Z,2.20
2019-06-04T09:15:40.634Z,1.80
2019-06-04T09:18:09.555Z,2.30
2019-06-04T09:20:38.403Z,2.40
2019-06-04T09:23:07.138Z,1.90
2019-06-04T09:25:36.037Z,2.60
2019-06-04T09:28:04.865Z,2.60
2019-06-04T09:30:33.335Z,2.30
2019-06-04T09:33:01.832Z,1.90
2019-06-04T09:35:30.357Z,2.30
2019-06-04T09:38:03.788Z,2.10
2019-06-04T09:40:28.950Z,2.20
2019-06-04T09:42:57.510Z,2.10
2019-06-04T09:45:26.032Z,1.90
2019-06-04T09:47:54.594Z,2.20
2019-06-04T09:50:23.165Z,2.37
2019-06-04T09:52:53.626Z,2.00
2019-06-04T09:55:21.816Z,2.47
2019-06-04T09:58:25.864Z,2.10
2019-06-04T10:00:35.585Z,2.30
2019-06-04T10:03:06.514Z,2.77
2019-06-04T10:05:35.043Z,2.17
2019-06-04T10:08:11.820Z,3.10
2019-06-04T10:10:36.393Z,2.17
2019-06-04T10:13:08.481Z,2.20
2019-06-04T10:15:37.493Z,2.00
2019-06-04T10:18:07.988Z,2.30
2019-06-04T10:20:36.790Z,2.17
2019-06-04T10:23:05.854Z,2.10
2019-06-04T10:25:34.299Z,2.50
2019-06-04T10:28:02.861Z,2.00
2019-06-04T10:30:31.396Z,1.63
2019-06-04T10:33:06.858Z,2.03
2019-06-04T10:35:31.010Z,2.50
2019-06-04T10:37:59.532Z,2.27
2019-06-04T10:40:28.078Z,2.20
2019-06-04T10:42:56.573Z,2.53
2019-06-04T10:45:25.132Z,2.33
2019-06-04T10:47:55.091Z,2.23
2019-06-04T10:50:31.770Z,2.97
2019-06-04T10:53:01.413Z,2.10
2019-06-04T10:55:29.953Z,2.33
2019-06-04T10:57:58.820Z,2.00
2019-06-04T11:00:45.312Z,2.23
2019-06-04T11:03:13.947Z,2.30
2019-06-04T11:05:42.547Z,2.50
2019-06-04T11:08:12.641Z,2.20
2019-06-04T11:10:41.304Z,1.97
2019-06-04T11:13:09.902Z,2.30
2019-06-04T11:15:38.392Z,1.80
2019-06-04T11:18:08.828Z,1.97
2019-06-04T11:20:38.408Z,2.00
2019-06-04T11:23:06.934Z,2.00
2019-06-04T11:25:35.858Z,2.37
2019-06-04T11:28:05.756Z,1.97
2019-06-04T11:30:34.391Z,1.57
2019-06-04T11:33:02.857Z,1.50
2019-06-04T11:35:31.345Z,2.27
2019-06-04T11:38:01.511Z,2.40
2019-06-04T11:40:30.171Z,1.93
2019-06-04T11:43:06.684Z,1.70
2019-06-04T11:45:37.640Z,1.70
2019-06-04T11:48:06.863Z,2.20
2019-06-04T11:50:35.330Z,2.17
2019-06-04T11:53:04.550Z,1.90
2019-06-04T11:55:35.279Z,1.97
2019-06-04T11:58:04.185Z,2.00
2019-06-04T12:00:54.009Z,2.13
2019-06-04T12:03:21.464Z,1.80
2019-06-04T12:05:50.116Z,1.93
2019-06-04T12:08:18.742Z,1.93
2019-06-04T12:10:47.300Z,1.70
2019-06-04T12:13:15.943Z,1.93
2019-06-04T12:15:44.567Z,1.87
2019-06-04T12:18:13.017Z,1.60
2019-06-04T12:20:41.609Z,1.97
2019-06-04T12:23:30.145Z,1.80
2019-06-04T12:25:40.267Z,1.80
2019-06-04T12:28:09.262Z,1.77
2019-06-04T12:30:39.492Z,1.70
2019-06-04T12:33:08.016Z,1.90
2019-06-04T12:35:37.025Z,1.60
2019-06-04T12:38:09.706Z,1.47
2019-06-04T12:40:37.517Z,1.70
2019-06-04T12:43:06.893Z,1.97
2019-06-04T12:45:35.460Z,1.63
2019-06-04T12:48:05.918Z,1.87
2019-06-04T12:50:36.048Z,1.33
2019-06-04T12:53:06.252Z,1.90
2019-06-04T12:55:35.317Z,1.73
2019-06-04T12:58:06.162Z,1.87
2019-06-04T13:00:35.973Z,1.80
2019-06-04T13:03:05.500Z,1.73
2019-06-04T13:05:34.205Z,1.50
2019-06-04T13:08:07.748Z,1.33
2019-06-04T13:10:33.793Z,2.00
2019-06-04T13:13:03.382Z,1.47
2019-06-04T13:15:32.049Z,1.87
2019-06-04T13:18:02.081Z,1.80
2019-06-04T13:20:31.326Z,1.60
2019-06-04T13:23:01.745Z,1.50
2019-06-04T13:25:30.433Z,2.27
2019-06-04T13:27:59.391Z,1.77
2019-06-04T13:30:43.656Z,1.97
2019-06-04T13:33:12.189Z,1.70
2019-06-04T13:35:40.733Z,1.40
2019-06-04T13:38:11.060Z,1.77
2019-06-04T13:40:40.638Z,1.73
2019-06-04T13:43:09.983Z,1.93
2019-06-04T13:45:38.883Z,1.90
2019-06-04T13:48:07.822Z,1.57
2019-06-04T13:50:37.814Z,1.63
2019-06-04T13:53:10.781Z,1.70
2019-06-04T13:55:37.584Z,2.30
2019-06-04T13:58:10.546Z,1.80
2019-06-04T14:00:42.708Z,1.63
2019-06-04T14:03:07.156Z,1.37
2019-06-04T14:05:35.703Z,1.50
2019-06-04T14:08:05.097Z,1.87
2019-06-04T14:10:48.269Z,2.53
2019-06-04T14:13:03.980Z,3.87
2019-06-04T14:15:33.110Z,3.43
2019-06-04T14:18:01.594Z,2.20
2019-06-04T14:20:32.320Z,2.07
2019-06-04T14:23:08.089Z,1.40
2019-06-04T14:25:30.523Z,2.27
2019-06-04T14:27:58.991Z,1.63
2019-06-04T14:30:27.516Z,2.10
2019-06-04T14:32:56.013Z,1.70
2019-06-04T14:35:24.538Z,1.90
2019-06-04T14:37:53.231Z,1.57
2019-06-04T14:40:32.484Z,1.60
2019-06-04T14:42:52.357Z,1.50
2019-06-04T14:45:23.412Z,1.40
2019-06-04T14:47:52.204Z,1.77
2019-06-04T14:50:20.903Z,1.70
2019-06-04T14:52:49.416Z,1.30
2019-06-04T14:55:19.076Z,1.53
2019-06-04T14:57:47.723Z,2.07
2019-06-04T15:00:17.222Z,1.67
2019-06-04T15:02:45.736Z,1.90
2019-06-04T15:05:15.702Z,1.87
2019-06-04T15:08:00.061Z,1.60
2019-06-04T15:10:16.672Z,1.70
2019-06-04T15:12:44.765Z,1.70
2019-06-04T15:15:13.753Z,1.33
2019-06-04T15:17:42.274Z,1.43
2019-06-04T15:20:12.128Z,2.00
2019-06-04T15:22:40.692Z,1.50
2019-06-04T15:25:24.371Z,1.80
2019-06-04T15:27:53.207Z,1.60
2019-06-04T15:30:22.201Z,1.53
2019-06-04T15:32:50.924Z,1.60
2019-06-04T15:35:20.271Z,1.80
2019-06-04T15:37:48.840Z,2.03
2019-06-04T15:40:18.700Z,2.00
2019-06-04T15:42:47.238Z,1.53
2019-06-04T15:45:38.015Z,1.50
2019-06-04T15:48:07.266Z,1.70
2019-06-04T15:50:35.854Z,1.57
2019-06-04T15:53:05.688Z,1.60
2019-06-04T15:55:34.498Z,1.70
2019-06-04T15:58:03.063Z,2.07
2019-06-04T16:00:31.591Z,1.93
2019-06-04T16:03:02.893Z,1.80
2019-06-04T16:05:30.342Z,1.70
2019-06-04T16:07:58.844Z,1.57
2019-06-04T16:10:28.960Z,1.87
2019-06-04T16:12:57.445Z,1.57
2019-06-04T16:15:25.923Z,2.17
2019-06-04T16:17:54.410Z,2.00
2019-06-04T16:20:35.296Z,1.97
2019-06-04T16:23:00.890Z,1.30
2019-06-04T16:25:30.683Z,1.57
2019-06-04T16:28:13.210Z,1.40
2019-06-04T16:30:43.912Z,1.70
2019-06-04T16:33:12.542Z,1.53
2019-06-04T16:35:41.354Z,1.60
2019-06-04T16:38:10.494Z,1.67
2019-06-04T16:40:39.125Z,1.95
2019-06-04T16:43:08.127Z,2.00
2019-06-04T16:45:38.878Z,2.10
2019-06-04T16:48:08.105Z,1.73
2019-06-04T16:50:36.806Z,1.80
2019-06-04T16:53:06.415Z,2.00
2019-06-04T16:55:35.479Z,1.60
2019-06-04T16:58:04.892Z,1.70
2019-06-04T17:00:33.580Z,1.73
2019-06-04T17:03:02.137Z,1.40
2019-06-04T17:05:30.619Z,1.97
2019-06-04T17:07:59.068Z,1.70
2019-06-04T17:10:36.165Z,1.80
2019-06-04T17:13:10.553Z,1.60
2019-06-04T17:15:39.211Z,1.60
2019-06-04T17:18:08.410Z,1.60
2019-06-04T17:20:37.031Z,1.77
2019-06-04T17:23:06.036Z,1.73
2019-06-04T17:25:34.669Z,1.57
2019-06-04T17:28:03.707Z,1.80
2019-06-04T17:30:32.453Z,1.98
2019-06-04T17:33:05.357Z,1.70
2019-06-04T17:35:32.732Z,1.73
2019-06-04T17:38:01.377Z,1.73
2019-06-04T17:40:31.249Z,1.70
2019-06-04T17:43:05.883Z,2.00
2019-06-04T17:45:30.024Z,1.63
2019-06-04T17:47:58.481Z,1.57
2019-06-04T17:50:28.123Z,1.60
2019-06-04T17:52:57.230Z,1.73
2019-06-04T17:55:26.467Z,1.37
2019-06-04T17:57:54.980Z,2.10
2019-06-04T18:00:37.346Z,2.33
2019-06-04T18:03:07.271Z,2.20
2019-06-04T18:05:36.815Z,1.87
2019-06-04T18:08:05.800Z,1.93
2019-06-04T18:10:35.329Z,1.87
2019-06-04T18:13:13.871Z,2.60
2019-06-04T18:15:35.574Z,1.90
2019-06-04T18:18:04.504Z,1.90
2019-06-04T18:20:34.403Z,2.33
2019-06-04T18:23:02.959Z,2.73
2019-06-04T18:25:32.315Z,1.83
2019-06-04T18:28:00.976Z,2.00
2019-06-04T18:30:30.875Z,2.50
2019-06-04T18:32:59.606Z,1.80
2019-06-04T18:35:28.081Z,1.60
2019-06-04T18:37:56.549Z,2.20
2019-06-04T18:40:25.039Z,1.60
2019-06-04T18:42:53.497Z,2.00
2019-06-04T18:45:22.862Z,2.17
2019-06-04T18:47:51.333Z,2.20
2019-06-04T18:50:19.953Z,1.98
2019-06-04T18:52:51.282Z,2.30
2019-06-04T18:55:18.691Z,2.40
2019-06-04T18:57:47.149Z,2.13
2019-06-04T19:00:17.563Z,1.87
2019-06-04T19:02:46.007Z,1.83
2019-06-04T19:05:14.640Z,2.00
2019-06-04T19:07:43.174Z,2.20
2019-06-04T19:10:13.626Z,2.27
2019-06-04T19:12:42.133Z,2.80
2019-06-04T19:15:12.333Z,2.50
2019-06-04T19:17:42.787Z,1.80
2019-06-04T19:20:12.124Z,2.27
2019-06-04T19:22:41.526Z,1.80
2019-06-04T19:25:10.553Z,2.10
2019-06-04T19:27:39.252Z,2.37
2019-06-04T19:30:08.250Z,2.20
2019-06-04T19:32:41.011Z,2.00
2019-06-04T19:35:07.901Z,2.17
2019-06-04T19:37:37.226Z,1.97
2019-06-04T19:40:06.407Z,2.50
2019-06-04T19:42:34.914Z,2.27
2019-06-04T19:45:05.094Z,1.97
2019-06-04T19:47:34.133Z,2.27
2019-06-04T19:50:02.757Z,2.80
2019-06-04T19:52:31.257Z,2.07
2019-06-04T19:54:59.721Z,2.70
2019-06-04T19:57:28.221Z,2.20
2019-06-04T19:59:56.686Z,2.57
2019-06-04T20:02:25.175Z,2.73
2019-06-04T20:04:53.646Z,2.30
2019-06-04T20:07:22.304Z,2.60
2019-06-04T20:09:50.764Z,2.10
2019-06-04T20:12:19.255Z,2.70
2019-06-04T20:14:49.951Z,2.67
2019-06-04T20:17:17.923Z,2.30
2019-06-04T20:19:47.707Z,1.90
2019-06-04T20:22:16.292Z,2.60
2019-06-04T20:24:44.763Z,2.70
2019-06-04T20:27:13.251Z,2.63
2019-06-04T20:29:42.558Z,2.40
2019-06-04T20:32:11.018Z,2.50
2019-06-04T20:34:40.886Z,2.60
2019-06-04T20:37:09.474Z,2.50
2019-06-04T20:39:40.321Z,2.43
2019-06-04T20:42:08.077Z,2.30
2019-06-04T20:44:36.528Z,2.50
2019-06-04T20:47:05.029Z,2.53
2019-06-04T20:49:33.494Z,2.47
2019-06-04T20:52:01.985Z,2.80
2019-06-04T20:54:30.458Z,2.23
2019-06-04T20:57:16.074Z,2.40
2019-06-04T20:59:29.054Z,2.67
2019-06-04T21:01:57.921Z,2.70
2019-06-04T21:04:26.443Z,2.07
2019-06-04T21:06:55.408Z,2.57
2019-06-04T21:09:24.381Z,2.30
2019-06-04T21:11:52.882Z,2.60
2019-06-04T21:14:21.342Z,2.50
2019-06-04T21:16:50.373Z,3.10
2019-06-04T21:19:19.194Z,2.30
2019-06-04T21:21:48.293Z,2.57
2019-06-04T21:24:17.948Z,3.00
2019-06-04T21:26:46.889Z,2.57
2019-06-04T21:29:15.357Z,2.17
2019-06-04T21:31:43.837Z,2.80
2019-06-04T21:34:12.396Z,2.60
2019-06-04T21:36:40.787Z,2.80
2019-06-04T21:39:09.277Z,2.67
2019-06-04T21:41:37.749Z,2.73
2019-06-04T21:44:06.323Z,2.30
2019-06-04T21:46:34.782Z,2.80
2019-06-04T21:49:03.342Z,2.57
2019-06-04T21:51:31.804Z,2.70
2019-06-04T21:54:02.368Z,2.43
2019-06-04T21:56:30.421Z,2.50
2019-06-04T21:58:58.981Z,2.73
2019-06-04T22:01:27.550Z,2.50
2019-06-04T22:03:56.170Z,2.83
2019-06-04T22:06:24.654Z,2.37
2019-06-04T22:08:55.162Z,2.37
2019-06-04T22:11:23.335Z,2.67
2019-06-04T22:13:52.939Z,2.57
2019-06-04T22:16:21.984Z,2.50
2019-06-04T22:18:50.485Z,2.90
2019-06-04T22:21:18.905Z,3.07
2019-06-04T22:23:48.638Z,2.87
2019-06-04T22:26:17.293Z,2.80
2019-06-04T22:28:45.782Z,2.60
2019-06-04T22:31:14.245Z,2.47
2019-06-04T22:33:42.738Z,2.47
2019-06-04T22:36:11.202Z,2.90
2019-06-04T22:38:39.692Z,2.80
2019-06-04T22:41:08.159Z,2.63
2019-06-04T22:43:36.654Z,2.67
2019-06-04T22:46:18.871Z,2.53
2019-06-04T22:48:35.804Z,3.17
2019-06-04T22:51:04.343Z,2.97
2019-06-04T22:53:32.837Z,2.50
2019-06-04T22:56:01.370Z,2.43
2019-06-04T22:58:29.853Z,2.80
2019-06-04T23:00:59.498Z,2.90
2019-06-04T23:03:28.150Z,2.70
2019-06-04T23:05:56.644Z,3.30
2019-06-04T23:08:25.105Z,3.33
2019-06-04T23:10:54.151Z,2.93
2019-06-04T23:13:23.771Z,3.40
2019-06-04T23:15:53.372Z,3.40
2019-06-04T23:18:21.915Z,3.20
2019-06-04T23:20:50.408Z,3.30
2019-06-04T23:23:18.879Z,3.10
2019-06-04T23:25:47.373Z,2.40
2019-06-04T23:28:15.832Z,2.73
2019-06-04T23:30:44.321Z,2.57
2019-06-04T23:33:12.782Z,3.40
2019-06-04T23:35:41.310Z,2.97
2019-06-04T23:38:09.743Z,2.60
2019-06-04T23:40:38.248Z,2.60
2019-06-04T23:43:06.694Z,3.20
2019-06-04T23:45:35.255Z,3.30
2019-06-04T23:48:04.298Z,3.40
2019-06-04T23:50:32.816Z,3.30
2019-06-04T23:53:01.613Z,3.87
2019-06-04T23:55:30.071Z,3.20
2019-06-04T23:57:59.745Z,3.00
